Terminal Aerodrome Forecast
Issued by NWS Chicago, IL

Home | Current Version | Previous Version | Text Only | Print | Product List | Glossary On
Versions: 1 2 3 4 5 6 7 8 9 10 11 12 13 14 15 16 17 18 19 20 21 22 23 24 25 26 27 28 29 30 31 32
000
FTUS43 KLOT 280300 AAA
TAFRFD
TAF AMD
KRFD 280305Z 2803/2824 VRB03KT P6SM SCT250
     FM280900 18004KT P6SM VCSH SCT025 OVC040
      TEMPO 2810/2812 2SM -SN
     FM281200 20005KT P6SM BKN050
     FM281500 16013G21KT P6SM SCT025 BKN080
     FM282200 18009KT P6SM SCT020 SCT060=

USA.gov is the U.S. government's official web portal to all federal, state and local government web resources and services.